Time;durP1;ratioP1;P1;durP2;ratioP2;P2;SDS_P1;SDS_P2;PMS_P1;PMS_P2;Temp;Humidity;BMP_temperature;BMP_pressure;BME280_temperature;BME280_humidity;BME280_pressure;Samples;Min_cycle;Max_cycle;Signal;HPM_P1;HPM_P2
2022/01/18 00:01:57;;;;;;;0.10;0.10;;;7.00;99.90;;;;;;5129819;28;20214;-76
2022/01/18 00:04:24;;;;;;;0.20;0.20;;;7.00;99.90;;;;;;5129936;28;20226;-76
2022/01/18 00:06:52;;;;;;;0.10;0.10;;;6.80;99.90;;;;;;5129963;28;20155;-75
2022/01/18 00:09:22;;;;;;;0.08;0.08;;;6.70;99.90;;;;;;5111548;28;20198;-76
2022/01/18 00:11:57;;;;;;;0.10;0.10;;;6.80;99.90;;;;;;5129645;28;20190;-76
2022/01/18 00:14:28;;;;;;;0.35;0.20;;;6.80;99.90;;;;;;5111455;28;20208;-75
2022/01/18 00:19:26;;;;;;;0.20;0.20;;;6.70;99.90;;;;;;5126661;28;20212;-76
2022/01/18 00:22:12;;;;;;;0.30;0.30;;;6.60;99.90;;;;;;5129721;28;20166;-76
2022/01/18 00:24:40;;;;;;;1.85;0.30;;;6.50;99.90;;;;;;5124418;28;20167;-76
2022/01/18 00:27:13;;;;;;;0.20;0.20;;;6.50;99.90;;;;;;5109231;28;20156;-76
2022/01/18 00:29:52;;;;;;;0.65;0.20;;;6.40;99.90;;;;;;5109241;28;20178;-76
2022/01/18 00:34:46;;;;;;;0.30;0.30;;;6.30;99.90;;;;;;5109398;28;20191;-75
2022/01/18 00:37:25;;;;;;;0.20;0.20;;;6.20;99.90;;;;;;5109076;28;20514;-76
2022/01/18 00:39:51;;;;;;;0.82;0.30;;;6.10;99.90;;;;;;5090964;28;20168;-76
2022/01/18 00:42:17;;;;;;;0.43;0.20;;;6.10;99.90;;;;;;5109344;28;20168;-75
2022/01/18 00:44:43;;;;;;;0.10;0.10;;;6.00;99.90;;;;;;5109224;28;20159;-76
2022/01/18 00:47:09;;;;;;;0.30;0.30;;;5.90;99.90;;;;;;5107620;28;20215;-76
2022/01/18 00:49:41;;;;;;;0.73;0.38;;;5.90;99.90;;;;;;5108982;28;20155;-76
2022/01/18 00:52:08;;;;;;;0.20;0.20;;;5.80;99.90;;;;;;5111885;28;20214;-76
2022/01/18 00:54:40;;;;;;;0.45;0.20;;;5.80;99.90;;;;;;5124414;28;20178;-76
2022/01/18 00:57:07;;;;;;;0.30;0.20;;;5.90;99.90;;;;;;5133208;28;20187;-75
2022/01/18 00:59:33;;;;;;;0.10;0.10;;;6.10;99.90;;;;;;5129169;28;20237;-75
2022/01/18 01:01:59;;;;;;;0.10;0.10;;;6.30;99.90;;;;;;5112659;28;20186;-76
2022/01/18 01:04:29;;;;;;;0.20;0.20;;;6.50;99.90;;;;;;5112600;28;20219;-75
2022/01/18 01:06:55;;;;;;;0.10;0.10;;;6.50;99.90;;;;;;5112589;28;20213;-76
2022/01/18 01:09:21;;;;;;;0.10;0.10;;;6.50;99.90;;;;;;5123211;28;20186;-75
2022/01/18 01:11:48;;;;;;;0.00;0.00;;;6.60;99.90;;;;;;5133011;28;20186;-75
2022/01/18 01:14:20;;;;;;;0.10;0.10;;;6.50;99.90;;;;;;5133094;28;20173;-75
2022/01/18 01:43:28;;;;;;;0.22;0.20;;;5.30;99.90;;;;;;5112092;28;20166;-75
2022/01/18 01:45:55;;;;;;;0.52;0.20;;;5.20;99.90;;;;;;5093650;28;20209;-75
2022/01/18 01:48:23;;;;;;;0.22;0.20;;;5.10;99.90;;;;;;5093643;28;20205;-76
2022/01/18 01:50:54;;;;;;;0.13;0.10;;;5.10;99.90;;;;;;5111918;28;20164;-76
2022/01/18 01:53:24;;;;;;;0.20;0.20;;;5.00;99.90;;;;;;5093502;28;20221;-76
2022/01/18 01:55:51;;;;;;;0.25;0.20;;;4.90;99.90;;;;;;5111888;28;20151;-76
2022/01/18 01:58:21;;;;;;;0.38;0.22;;;4.80;99.90;;;;;;5111640;28;20261;-76
2022/01/18 02:00:55;;;;;;;0.82;0.30;;;4.70;99.90;;;;;;5093234;28;20226;-75
2022/01/18 02:03:22;;;;;;;4.22;0.28;;;4.60;99.90;;;;;;5110913;28;20214;-75
2022/01/18 02:05:48;;;;;;;0.85;0.30;;;4.80;99.90;;;;;;5111566;28;20159;-76
2022/01/18 02:08:15;;;;;;;0.35;0.35;;;4.70;99.90;;;;;;5111534;28;20191;-76
2022/01/18 02:10:44;;;;;;;0.20;0.20;;;4.70;99.90;;;;;;5093249;28;20179;-76
2022/01/18 02:13:14;;;;;;;0.30;0.30;;;4.70;99.90;;;;;;5111395;28;20187;-76
2022/01/18 02:16:09;;;;;;;0.85;0.40;;;4.50;99.90;;;;;;5093227;28;20175;-76
2022/01/18 02:24:03;;;;;;;3.08;0.90;;;4.50;99.90;;;;;;5111322;28;20177;-76
2022/01/18 02:26:29;;;;;;;0.85;0.85;;;4.60;99.90;;;;;;5093042;28;20239;-76
2022/01/18 02:28:59;;;;;;;1.75;0.70;;;4.50;99.90;;;;;;5111000;28;20595;-76
2022/01/18 02:31:25;;;;;;;2.88;1.13;;;4.40;99.90;;;;;;5110925;28;20187;-76
2022/01/18 02:33:51;;;;;;;2.63;1.20;;;4.30;99.90;;;;;;5110884;28;20162;-76
2022/01/18 02:36:17;;;;;;;1.10;0.85;;;4.10;99.90;;;;;;5110910;28;20155;-76
2022/01/18 02:38:42;;;;;;;2.30;1.27;;;4.00;99.90;;;;;;5110944;28;20162;-76
2022/01/18 02:41:08;;;;;;;2.08;1.08;;;3.90;99.90;;;;;;5092481;28;20178;-75
2022/01/18 02:43:46;;;;;;;2.05;0.90;;;3.90;99.90;;;;;;5092686;28;20632;-75
2022/01/18 02:46:13;;;;;;;1.00;0.90;;;3.70;99.90;;;;;;5092578;28;20198;-76
2022/01/18 02:48:39;;;;;;;2.40;1.10;;;3.70;99.90;;;;;;5117837;27;20234;-75
2022/01/18 02:51:05;;;;;;;4.95;1.40;;;3.70;99.90;;;;;;5151626;27;20211;-75
2022/01/18 02:53:31;;;;;;;4.65;1.45;;;3.60;99.90;;;;;;5151647;27;20196;-75
2022/01/18 02:55:58;;;;;;;4.13;1.95;;;3.60;99.90;;;;;;5133109;27;20170;-75
2022/01/18 02:58:32;;;;;;;4.45;1.75;;;3.50;99.90;;;;;;5133074;27;20205;-75
2022/01/18 03:03:32;;;;;;;2.17;1.52;;;3.30;99.90;;;;;;5151627;27;20215;-75
2022/01/18 03:06:00;;;;;;;2.78;1.65;;;3.20;99.90;;;;;;5133017;27;20233;-75
2022/01/18 03:08:27;;;;;;;2.67;1.52;;;3.20;99.90;;;;;;5151361;27;20186;-75
2022/01/18 03:10:53;;;;;;;2.08;1.63;;;3.30;99.90;;;;;;5151374;27;20182;-76
2022/01/18 03:13:19;;;;;;;2.17;1.92;;;3.20;99.90;;;;;;5133021;27;20202;-76
2022/01/18 03:15:46;;;;;;;3.05;1.77;;;3.20;99.90;;;;;;5150380;27;20165;-75
2022/01/18 03:18:12;;;;;;;2.33;1.88;;;3.10;99.90;;;;;;5151094;27;20215;-76
2022/01/18 03:20:39;;;;;;;2.03;1.60;;;3.10;99.90;;;;;;5151271;27;20161;-76
2022/01/18 03:23:10;;;;;;;3.08;1.83;;;3.20;99.90;;;;;;5151260;27;20158;-75
2022/01/18 03:28:06;;;;;;;2.58;1.60;;;3.30;99.90;;;;;;5151102;27;20186;-76
2022/01/18 03:30:36;;;;;;;3.08;1.83;;;3.20;99.90;;;;;;5151195;27;20162;-75
2022/01/18 03:33:04;;;;;;;2.10;1.42;;;3.20;99.90;;;;;;5150721;27;20188;-75
2022/01/18 03:35:30;;;;;;;3.60;2.10;;;3.10;99.90;;;;;;5150900;27;20150;-76
2022/01/18 03:37:56;;;;;;;2.85;1.60;;;3.10;99.90;;;;;;5150857;27;20239;-75
2022/01/18 03:40:22;;;;;;;2.10;1.33;;;3.00;99.90;;;;;;5150736;27;20178;-75
2022/01/18 03:42:49;;;;;;;3.15;1.60;;;2.90;99.90;;;;;;5150691;27;20166;-75
2022/01/18 03:45:29;;;;;;;2.67;1.58;;;2.80;99.90;;;;;;5132104;27;20173;-75
2022/01/18 03:47:57;;;;;;;3.63;1.45;;;2.60;99.90;;;;;;5150352;27;20189;-75
2022/01/18 03:50:24;;;;;;;4.68;1.40;;;2.50;99.90;;;;;;5150490;27;20158;-75
2022/01/18 03:52:50;;;;;;;2.50;1.63;;;2.40;99.90;;;;;;5131986;27;20219;-76
2022/01/18 03:55:18;;;;;;;2.45;1.70;;;2.30;99.90;;;;;;5150593;27;20156;-75
2022/01/18 03:57:44;;;;;;;4.43;2.17;;;2.30;99.90;;;;;;5150415;27;20185;-75
2022/01/18 04:00:19;;;;;;;2.78;1.83;;;2.30;99.90;;;;;;5150212;27;20225;-75
2022/01/18 04:02:47;;;;;;;2.15;1.90;;;2.30;99.90;;;;;;5150443;27;20197;-75
2022/01/18 04:05:13;;;;;;;3.08;1.75;;;2.30;99.90;;;;;;5150346;27;20156;-74
2022/01/18 04:07:40;;;;;;;2.53;1.45;;;2.20;99.90;;;;;;5131741;27;20194;-75
2022/01/18 04:10:08;;;;;;;3.55;1.65;;;2.10;99.90;;;;;;5150391;27;20156;-76
2022/01/18 04:12:36;;;;;;;3.95;2.28;;;1.90;99.90;;;;;;5150217;27;20181;-75
2022/01/18 04:15:07;;;;;;;2.78;2.10;;;1.90;99.90;;;;;;5150166;28;20564;-76
2022/01/18 04:28:43;;;;;;;3.67;2.42;;;1.80;99.90;;;;;;5045520;27;20216;-75
2022/01/18 04:31:10;;;;;;;3.00;1.85;;;1.80;99.90;;;;;;5154385;27;20165;-75
2022/01/18 04:33:38;;;;;;;4.47;2.13;;;1.80;99.90;;;;;;5154320;27;20216;-78
2022/01/18 04:36:06;;;;;;;1.92;1.60;;;1.80;99.90;;;;;;5135822;27;20154;-76
2022/01/18 04:38:33;;;;;;;2.70;2.00;;;1.90;99.90;;;;;;5153976;27;20203;-77
2022/01/18 04:41:05;;;;;;;2.70;1.90;;;1.90;99.90;;;;;;5154161;27;20210;-76
2022/01/18 04:48:54;;;;;;;2.85;2.42;;;1.90;99.90;;;;;;5154047;27;20215;-77
2022/01/18 04:51:20;;;;;;;2.40;1.70;;;2.00;99.90;;;;;;5153686;27;20154;-75
2022/01/18 04:53:52;;;;;;;3.40;1.75;;;2.00;99.90;;;;;;5153730;27;20181;-75
2022/01/18 04:56:29;;;;;;;4.00;1.63;;;2.10;99.90;;;;;;5153918;27;20148;-75
2022/01/18 04:58:56;;;;;;;4.80;1.80;;;2.10;99.90;;;;;;5134891;27;20190;-76
2022/01/18 05:01:22;;;;;;;4.03;2.33;;;2.20;99.90;;;;;;5135046;27;20170;-76
2022/01/18 05:03:48;;;;;;;4.35;2.17;;;2.10;99.90;;;;;;5153731;27;20173;-75
2022/01/18 05:06:17;;;;;;;1.98;1.60;;;2.00;99.90;;;;;;5135054;27;20170;-75
2022/01/18 05:08:44;;;;;;;3.42;2.22;;;2.00;99.90;;;;;;5153449;27;20561;-75
2022/01/18 05:11:15;;;;;;;5.22;1.88;;;1.90;99.90;;;;;;5135041;27;20166;-76
2022/01/18 05:21:30;;;;;;;2.88;2.33;;;1.80;99.90;;;;;;5153493;27;20158;-77
2022/01/18 05:23:57;;;;;;;5.88;1.70;;;1.70;99.90;;;;;;5134844;27;20166;-77
2022/01/18 05:26:24;;;;;;;4.15;1.85;;;1.60;99.90;;;;;;5134691;27;20166;-76
2022/01/18 05:28:50;;;;;;;4.25;1.58;;;1.50;99.90;;;;;;5134499;27;20193;-77
2022/01/18 05:31:17;;;;;;;2.55;2.00;;;1.50;99.90;;;;;;5134413;27;20162;-77
2022/01/18 05:33:43;;;;;;;1.83;1.40;;;1.40;99.90;;;;;;5134374;27;20190;-76
2022/01/18 05:36:10;;;;;;;3.88;2.17;;;1.30;99.90;;;;;;5152839;27;20150;-76
2022/01/18 05:38:37;;;;;;;3.70;2.40;;;1.30;99.90;;;;;;5151795;27;20234;-76
2022/01/18 05:41:04;;;;;;;3.08;2.03;;;1.30;99.90;;;;;;5134337;27;20166;-76
2022/01/18 05:43:31;;;;;;;2.55;1.77;;;1.30;99.90;;;;;;5134672;27;20177;-76
2022/01/18 05:45:57;;;;;;;5.20;1.60;;;1.30;99.90;;;;;;5153256;27;20165;-78
2022/01/18 05:48:23;;;;;;;2.75;2.35;;;1.20;99.90;;;;;;5134370;27;20253;-77
2022/01/18 05:50:49;;;;;;;4.88;2.17;;;1.20;99.90;;;;;;5134014;27;20253;-77
2022/01/18 05:53:16;;;;;;;2.40;1.70;;;1.20;99.90;;;;;;5152224;27;20193;-76
2022/01/18 05:55:42;;;;;;;3.75;2.22;;;1.30;99.90;;;;;;5152738;27;20173;-77
2022/01/18 05:58:08;;;;;;;6.53;2.58;;;1.30;99.90;;;;;;5152486;27;20186;-77
2022/01/18 06:00:34;;;;;;;4.95;2.35;;;1.40;99.90;;;;;;5152105;27;20252;-75
2022/01/18 06:03:02;;;;;;;8.00;3.00;;;1.50;99.90;;;;;;5152422;27;20162;-75
2022/01/18 06:08:14;;;;;;;5.05;2.47;;;1.50;99.90;;;;;;5151965;27;20204;-76
2022/01/18 06:10:40;;;;;;;4.22;2.75;;;1.60;99.90;;;;;;5152039;27;20158;-75
2022/01/18 06:13:07;;;;;;;4.85;2.78;;;1.60;99.90;;;;;;5152098;27;20250;-76
2022/01/18 06:15:35;;;;;;;6.07;3.10;;;1.70;99.90;;;;;;5151799;27;20150;-76
2022/01/18 06:18:01;;;;;;;3.90;2.42;;;1.70;99.90;;;;;;5151845;27;20189;-75
2022/01/18 06:20:30;;;;;;;5.65;3.15;;;1.70;99.90;;;;;;5133307;27;20229;-75
2022/01/18 06:22:56;;;;;;;5.07;3.38;;;1.60;99.90;;;;;;5151778;27;20176;-74
2022/01/18 06:25:22;;;;;;;7.55;3.33;;;1.50;99.90;;;;;;5151945;27;20162;-75
2022/01/18 06:27:50;;;;;;;3.58;3.22;;;1.50;99.90;;;;;;5151657;27;20253;-75
2022/01/18 06:30:18;;;;;;;6.22;2.75;;;1.40;99.90;;;;;;5132922;27;20665;-75
2022/01/18 06:32:44;;;;;;;5.47;2.97;;;1.40;99.90;;;;;;5151518;27;20201;-75
2022/01/18 06:35:12;;;;;;;3.88;2.60;;;1.30;99.90;;;;;;5151883;27;20164;-75
2022/01/18 06:37:38;;;;;;;7.07;2.97;;;1.30;99.90;;;;;;5151698;27;20197;-76
2022/01/18 06:40:07;;;;;;;5.70;3.00;;;1.30;99.90;;;;;;5151623;27;20154;-76
2022/01/18 06:42:32;;;;;;;3.45;1.70;;;1.20;99.90;;;;;;5151553;27;20223;-76
2022/01/18 06:44:59;;;;;;;4.72;3.05;;;1.20;99.90;;;;;;5132954;27;20237;-76
2022/01/18 06:47:26;;;;;;;3.50;2.40;;;1.20;99.90;;;;;;5151234;27;20184;-76
2022/01/18 06:49:52;;;;;;;3.60;2.22;;;1.20;99.90;;;;;;5151482;27;20174;-76
2022/01/18 06:52:18;;;;;;;3.45;2.60;;;1.20;99.90;;;;;;5151350;27;20656;-77
2022/01/18 06:54:44;;;;;;;4.47;2.60;;;1.20;99.90;;;;;;5133048;27;20535;-76
2022/01/18 06:57:11;;;;;;;3.40;2.28;;;1.20;99.90;;;;;;5151548;27;20197;-76
2022/01/18 06:59:37;;;;;;;4.40;2.22;;;1.20;99.90;;;;;;5132748;27;20218;-76
2022/01/18 07:02:04;;;;;;;4.85;1.65;;;1.20;99.90;;;;;;5133140;27;20200;-76
2022/01/18 07:04:30;;;;;;;3.17;2.78;;;1.10;99.90;;;;;;5132741;27;20173;-76
2022/01/18 07:06:56;;;;;;;3.60;2.15;;;1.30;99.90;;;;;;5151210;27;20154;-76
2022/01/18 07:09:25;;;;;;;3.67;2.42;;;1.50;99.90;;;;;;5151232;27;20188;-76
2022/01/18 07:11:53;;;;;;;3.40;2.55;;;1.50;99.90;;;;;;5151597;27;20216;-76
2022/01/18 07:14:19;;;;;;;3.53;2.53;;;1.70;99.90;;;;;;5133120;27;20263;-76
2022/01/18 07:16:44;;;;;;;3.38;2.53;;;1.90;99.90;;;;;;5151250;27;20163;-76
2022/01/18 07:19:10;;;;;;;4.03;2.55;;;2.00;99.90;;;;;;5132197;27;20190;-75
2022/01/18 07:21:36;;;;;;;3.95;2.55;;;2.00;99.90;;;;;;5132558;27;20191;-76
2022/01/18 07:24:16;;;;;;;3.13;2.33;;;2.20;99.90;;;;;;5150815;27;20154;-77
2022/01/18 07:26:43;;;;;;;3.08;2.40;;;2.40;99.90;;;;;;5150486;27;20173;-76
2022/01/18 07:29:09;;;;;;;3.47;2.17;;;2.40;99.90;;;;;;5150588;27;20193;-77
2022/01/18 07:31:35;;;;;;;3.85;2.75;;;2.30;99.90;;;;;;5132053;27;20158;-77
2022/01/18 07:34:00;;;;;;;4.22;2.40;;;2.40;99.90;;;;;;5150646;27;20158;-76
2022/01/18 07:36:26;;;;;;;5.80;3.42;;;2.50;99.90;;;;;;5132219;27;20178;-76
2022/01/18 07:38:55;;;;;;;3.60;2.58;;;2.60;99.90;;;;;;5150392;27;20554;-76
2022/01/18 07:41:21;;;;;;;4.88;3.08;;;2.80;99.90;;;;;;5131861;27;20261;-76
2022/01/18 07:43:47;;;;;;;5.68;3.28;;;3.00;99.90;;;;;;5150383;27;20257;-76
2022/01/18 07:46:13;;;;;;;5.80;2.95;;;3.10;99.90;;;;;;5131899;27;20174;-76
2022/01/18 07:48:39;;;;;;;5.45;3.13;;;3.10;99.90;;;;;;5131487;27;20253;-76
2022/01/18 07:51:05;;;;;;;3.00;2.65;;;3.20;99.90;;;;;;5131797;27;20166;-76
2022/01/18 07:53:30;;;;;;;4.25;2.85;;;3.30;99.90;;;;;;5150356;27;20215;-76
2022/01/18 07:55:56;;;;;;;3.45;2.28;;;3.40;99.90;;;;;;5131965;27;20168;-76
2022/01/18 07:58:23;;;;;;;3.92;2.47;;;3.50;99.90;;;;;;5150302;27;20192;-75
2022/01/18 08:00:49;;;;;;;5.95;3.63;;;3.60;99.90;;;;;;5131166;27;20694;-75
2022/01/18 08:03:15;;;;;;;3.97;2.60;;;3.80;99.90;;;;;;5129458;28;20161;-76
2022/01/18 08:05:41;;;;;;;9.18;2.60;;;4.00;99.90;;;;;;5129614;28;20177;-76
2022/01/18 08:08:07;;;;;;;4.43;2.42;;;4.10;99.90;;;;;;5129277;28;20195;-76
2022/01/18 08:10:33;;;;;;;4.75;2.95;;;4.20;99.90;;;;;;5129244;28;20208;-75
2022/01/18 08:13:02;;;;;;;3.45;2.65;;;4.40;99.90;;;;;;5129416;28;20192;-75
2022/01/18 08:15:38;;;;;;;3.35;2.17;;;4.60;99.90;;;;;;5129542;28;20155;-76
2022/01/18 08:18:11;;;;;;;4.05;2.42;;;4.60;99.90;;;;;;5129468;28;20186;-75
2022/01/18 08:20:38;;;;;;;3.80;2.30;;;4.80;99.90;;;;;;5110986;28;20196;-76
2022/01/18 08:23:04;;;;;;;3.38;2.47;;;5.00;99.90;;;;;;5129313;28;20183;-76
2022/01/18 08:25:30;;;;;;;6.30;3.20;;;5.80;99.90;;;;;;5129408;28;20215;-76
2022/01/18 08:27:57;;;;;;;4.65;3.08;;;7.70;99.90;;;;;;5129316;28;20190;-76
2022/01/18 08:30:24;;;;;;;2.45;2.25;;;8.90;99.90;;;;;;5129466;28;20169;-76
2022/01/18 08:32:54;;;;;;;6.00;2.42;;;11.20;99.90;;;;;;5111030;28;20238;-76
2022/01/18 08:35:21;;;;;;;2.90;2.33;;;12.30;99.90;;;;;;5129160;28;20166;-76
2022/01/18 08:37:48;;;;;;;3.85;2.03;;;13.30;99.90;;;;;;5129025;28;20197;-76
2022/01/18 08:40:14;;;;;;;3.88;2.40;;;12.20;99.90;;;;;;5129204;28;20713;-77
2022/01/18 08:42:40;;;;;;;3.05;2.60;;;13.90;99.90;;;;;;5110997;28;20163;-76
2022/01/18 08:45:07;;;;;;;3.90;2.60;;;14.90;99.90;;;;;;5129334;28;20181;-77
2022/01/18 08:47:33;;;;;;;3.22;2.08;;;15.60;99.90;;;;;;5129173;28;20162;-77
2022/01/18 08:49:59;;;;;;;2.63;2.30;;;15.70;99.90;;;;;;5110950;28;20196;-77
2022/01/18 08:52:25;;;;;;;3.45;2.20;;;15.40;99.90;;;;;;5129015;28;20202;-77
2022/01/18 08:54:51;;;;;;;3.67;2.22;;;14.80;99.90;;;;;;5129217;28;20163;-76
2022/01/18 08:57:17;;;;;;;3.60;2.13;;;14.30;99.90;;;;;;5109355;28;20225;-77
2022/01/18 08:59:44;;;;;;;3.70;2.22;;;13.30;99.90;;;;;;5119506;28;20213;-76
2022/01/18 09:02:11;;;;;;;3.55;2.50;;;13.40;99.90;;;;;;5131055;28;20257;-76
2022/01/18 09:04:39;;;;;;;2.50;2.17;;;13.50;99.90;;;;;;5149822;28;20185;-77
2022/01/18 09:07:08;;;;;;;8.27;2.40;;;13.50;99.90;;;;;;5131234;28;20253;-76
2022/01/18 09:09:40;;;;;;;6.25;2.22;;;13.80;99.90;;;;;;5126273;28;20198;-75
2022/01/18 09:12:11;;;;;;;2.55;2.08;;;14.30;99.90;;;;;;5105233;28;20202;-76
2022/01/18 09:14:39;;;;;;;2.47;2.13;;;14.40;99.90;;;;;;5094122;28;20163;-75
2022/01/18 09:17:05;;;;;;;2.60;2.25;;;14.70;99.90;;;;;;5094179;28;20632;-76
2022/01/18 09:19:31;;;;;;;4.93;2.70;;;14.20;99.90;;;;;;5094053;28;20198;-75
2022/01/18 09:21:59;;;;;;;3.72;2.25;;;13.50;99.90;;;;;;5128277;28;20257;-76
2022/01/18 09:24:25;;;;;;;8.55;2.53;;;13.90;99.90;;;;;;5132710;28;20190;-76
2022/01/18 09:26:53;;;;;;;3.97;2.53;;;14.50;99.90;;;;;;5128613;27;20194;-76
2022/01/18 09:29:19;;;;;;;2.78;1.90;;;14.00;99.90;;;;;;5104582;28;20206;-76
2022/01/18 09:31:46;;;;;;;6.00;2.25;;;13.60;99.90;;;;;;5126007;28;20175;-75
2022/01/18 09:34:12;;;;;;;5.00;2.30;;;13.00;99.90;;;;;;5132547;28;20176;-76
2022/01/18 09:36:38;;;;;;;3.60;2.15;;;13.40;99.90;;;;;;5101625;28;20262;-75
2022/01/18 09:39:05;;;;;;;2.25;2.05;;;13.30;99.90;;;;;;5125213;28;20186;-75
2022/01/18 09:41:37;;;;;;;6.60;2.58;;;12.90;99.90;;;;;;5132375;28;20180;-75
2022/01/18 09:44:03;;;;;;;6.07;2.72;;;13.40;99.90;;;;;;5113389;28;20191;-75
2022/01/18 09:46:29;;;;;;;5.95;2.53;;;14.10;99.90;;;;;;5121559;28;20179;-76
2022/01/18 09:48:56;;;;;;;5.95;2.50;;;14.10;99.90;;;;;;5111873;28;20182;-75
2022/01/18 09:51:23;;;;;;;4.88;2.15;;;14.30;99.90;;;;;;5111779;28;20584;-76
2022/01/18 09:53:51;;;;;;;4.53;2.30;;;14.90;99.90;;;;;;5111593;28;20194;-76
2022/01/18 09:56:17;;;;;;;2.90;2.05;;;14.70;99.90;;;;;;5111702;28;20156;-75
2022/01/18 09:58:44;;;;;;;3.60;2.58;;;15.30;99.90;;;;;;5111506;28;20162;-76
2022/01/18 10:01:10;;;;;;;17.15;3.25;;;15.30;99.90;;;;;;5110340;28;20250;-75
2022/01/18 10:03:38;;;;;;;5.13;2.60;;;14.90;99.90;;;;;;5111416;28;20160;-76
2022/01/18 10:06:06;;;;;;;8.43;2.97;;;14.90;99.90;;;;;;5111587;28;20156;-75
2022/01/18 10:08:33;;;;;;;8.02;2.92;;;14.30;99.90;;;;;;5111388;28;20693;-75
2022/01/18 10:11:14;;;;;;;7.60;3.42;;;13.40;99.90;;;;;;5111356;28;20705;-75
2022/01/18 10:13:41;;;;;;;10.15;3.40;;;12.80;99.90;;;;;;5111169;28;20282;-76
2022/01/18 10:16:10;;;;;;;5.53;2.85;;;12.40;99.90;;;;;;5111438;28;20191;-75
2022/01/18 10:18:43;;;;;;;4.15;2.20;;;12.40;99.90;;;;;;5121731;28;20209;-76
2022/01/18 10:21:10;;;;;;;4.47;2.75;;;12.40;99.90;;;;;;5115044;28;20190;-75
2022/01/18 10:23:37;;;;;;;8.25;2.88;;;12.50;99.90;;;;;;5131161;28;20151;-75
2022/01/18 10:26:24;;;;;;;9.52;2.28;;;12.10;99.90;;;;;;5122195;28;20194;-76
2022/01/18 10:29:05;;;;;;;3.75;2.25;;;11.40;99.90;;;;;;5111180;28;20156;-75
2022/01/18 10:31:55;;;;;;;4.55;2.55;;;11.40;99.90;;;;;;5110888;28;20187;-75
2022/01/18 10:37:11;;;;;;;6.20;2.53;;;11.10;99.90;;;;;;5110732;28;20164;-75
2022/01/18 10:39:43;;;;;;;6.15;2.75;;;11.00;99.90;;;;;;5110785;28;20159;-76
2022/01/18 10:42:38;;;;;;;7.05;2.20;;;11.20;99.90;;;;;;5110571;28;20253;-75
2022/01/18 10:45:22;;;;;;;5.50;2.10;;;11.10;99.90;;;;;;5110630;28;20152;-76
2022/01/18 10:47:52;;;;;;;7.05;2.30;;;11.20;99.90;;;;;;5110663;28;20163;-76
2022/01/18 10:50:19;;;;;;;16.77;3.88;;;11.20;99.90;;;;;;5110600;28;20249;-75
2022/01/18 10:52:46;;;;;;;4.53;2.63;;;11.20;99.90;;;;;;5128847;28;20210;-75
2022/01/18 10:55:19;;;;;;;4.28;2.65;;;11.50;99.90;;;;;;5130916;28;20216;-75
2022/01/18 10:57:46;;;;;;;3.25;2.30;;;11.20;99.90;;;;;;5112621;28;20175;-76
2022/01/18 11:00:12;;;;;;;5.38;2.63;;;10.80;99.90;;;;;;5130541;28;20206;-75
2022/01/18 11:02:44;;;;;;;5.43;2.75;;;10.40;99.90;;;;;;5130642;28;20194;-75
2022/01/18 11:05:29;;;;;;;3.40;2.28;;;10.50;99.90;;;;;;5112527;28;20170;-75
2022/01/18 11:08:03;;;;;;;3.58;2.88;;;10.90;99.90;;;;;;5112392;28;20167;-74
2022/01/18 11:10:34;;;;;;;5.80;3.33;;;10.40;99.90;;;;;;5130527;28;20161;-76
2022/01/18 11:13:07;;;;;;;4.55;2.22;;;10.40;99.90;;;;;;5130574;28;20183;-75
2022/01/18 11:15:37;;;;;;;7.13;2.92;;;10.60;99.90;;;;;;5130465;28;20226;-75
2022/01/18 11:18:08;;;;;;;7.07;2.67;;;11.20;99.90;;;;;;5108432;28;20171;-76
2022/01/18 11:20:39;;;;;;;9.20;2.78;;;11.70;99.90;;;;;;5109899;28;20174;-75
2022/01/18 11:23:06;;;;;;;4.57;2.25;;;12.30;99.90;;;;;;5109895;28;20647;-76
2022/01/18 11:25:33;;;;;;;4.57;2.30;;;12.30;99.90;;;;;;5116912;28;20166;-75
2022/01/18 11:27:59;;;;;;;7.53;2.63;;;12.60;99.90;;;;;;5130412;28;20237;-76
2022/01/18 11:30:31;;;;;;;6.68;2.70;;;12.50;99.90;;;;;;5130079;28;20167;-75
2022/01/18 11:32:59;;;;;;;4.60;2.40;;;12.30;99.90;;;;;;5130143;28;20186;-75
2022/01/18 11:35:42;;;;;;;8.80;2.72;;;12.20;99.90;;;;;;5129569;28;20173;-75
2022/01/18 11:38:11;;;;;;;9.38;2.88;;;12.30;99.90;;;;;;5111872;28;20159;-75
2022/01/18 11:40:49;;;;;;;4.47;2.67;;;12.50;99.90;;;;;;5130191;28;20158;-76
2022/01/18 11:43:32;;;;;;;2.25;2.00;;;12.30;99.90;;;;;;5111749;28;20167;-75
2022/01/18 11:45:58;;;;;;;5.72;2.58;;;12.10;99.90;;;;;;5111438;28;20162;-76
2022/01/18 11:48:25;;;;;;;6.07;2.63;;;11.80;99.90;;;;;;5129963;28;20163;-75
2022/01/18 11:51:01;;;;;;;5.47;2.15;;;11.90;99.90;;;;;;5129665;28;20212;-76
2022/01/18 11:53:42;;;;;;;7.40;3.00;;;12.20;99.90;;;;;;5128460;28;20197;-75
2022/01/18 11:56:14;;;;;;;3.53;2.17;;;12.90;99.90;;;;;;5129775;28;20225;-76
2022/01/18 11:58:43;;;;;;;6.10;1.88;;;12.80;99.90;;;;;;5129710;28;20181;-76
2022/01/18 12:01:10;;;;;;;4.93;2.17;;;12.40;99.90;;;;;;5131877;27;20205;-75
2022/01/18 12:03:45;;;;;;;6.38;2.58;;;12.80;99.90;;;;;;5150206;27;20155;-75
2022/01/18 12:06:11;;;;;;;3.97;1.88;;;12.70;99.90;;;;;;5131838;28;20707;-76
2022/01/18 12:08:42;;;;;;;4.63;2.42;;;12.30;99.90;;;;;;5150080;27;20154;-75
2022/01/18 12:11:31;;;;;;;2.50;1.98;;;12.60;99.90;;;;;;5149823;27;20193;-75
2022/01/18 12:13:59;;;;;;;2.83;1.75;;;11.50;99.90;;;;;;5116231;28;20214;-75
2022/01/18 12:16:29;;;;;;;2.50;1.60;;;11.70;99.90;;;;;;5150140;27;20276;-76
2022/01/18 12:19:07;;;;;;;3.35;2.00;;;12.10;99.90;;;;;;5110104;28;20201;-76
2022/01/18 12:21:42;;;;;;;3.83;2.00;;;13.00;99.90;;;;;;5107477;28;20199;-75
2022/01/18 12:24:21;;;;;;;4.20;2.20;;;14.00;99.90;;;;;;5107664;28;20189;-75
2022/01/18 12:26:58;;;;;;;10.32;2.58;;;13.90;99.90;;;;;;5126435;28;20202;-73
2022/01/18 12:30:14;;;;;;;4.05;1.80;;;13.50;99.90;;;;;;5129226;28;20155;-75
2022/01/18 12:34:47;;;;;;;1.98;1.63;;;13.40;99.90;;;;;;5129337;28;20163;-75
2022/01/18 12:37:24;;;;;;;5.93;2.47;;;13.40;99.90;;;;;;5129276;28;20172;-75
2022/01/18 12:39:50;;;;;;;3.90;1.95;;;12.40;99.90;;;;;;5110816;28;20185;-75
2022/01/18 12:44:20;;;;;;;3.13;2.25;;;11.60;99.90;;;;;;5110481;28;20200;-75
2022/01/18 12:45:07;;;;;;;4.90;1.52;;;10.60;99.90;;;;;;5108246;28;20182;-75
2022/01/18 12:47:35;;;;;;;9.25;2.05;;;9.60;99.90;;;;;;5092482;28;20179;-75
2022/01/18 12:50:03;;;;;;;1.85;1.42;;;9.20;99.90;;;;;;5112940;28;20163;-76
2022/01/18 12:52:45;;;;;;;6.07;2.53;;;8.80;99.90;;;;;;5094279;28;20629;-75
2022/01/18 12:55:50;;;;;;;6.90;1.90;;;8.70;99.90;;;;;;5093974;28;20178;-75
2022/01/18 12:58:48;;;;;;;4.63;2.40;;;8.70;99.90;;;;;;5029963;28;20186;-75
2022/01/18 13:01:17;;;;;;;2.70;1.50;;;8.60;99.90;;;;;;5010605;28;20202;-75
2022/01/18 13:03:46;;;;;;;4.15;2.10;;;8.50;99.90;;;;;;4993867;28;20194;-75
2022/01/18 13:06:17;;;;;;;5.03;1.92;;;8.20;99.90;;;;;;4994174;28;20255;-75
2022/01/18 13:08:49;;;;;;;3.97;1.38;;;8.30;99.90;;;;;;4993946;28;20210;-74
2022/01/18 13:11:17;;;;;;;5.60;2.10;;;8.20;99.90;;;;;;5010517;28;20180;-75
2022/01/18 13:13:52;;;;;;;5.80;2.28;;;8.20;99.90;;;;;;5011069;28;20214;-76
2022/01/18 13:24:46;;;;;;;5.85;1.98;;;8.10;99.90;;;;;;5009977;28;20201;-75
2022/01/18 13:27:31;;;;;;;3.55;2.20;;;8.20;99.90;;;;;;4991018;28;20234;-76
2022/01/18 13:30:17;;;;;;;5.65;1.83;;;8.10;99.90;;;;;;4991343;28;20163;-76
2022/01/18 13:32:44;;;;;;;8.38;1.88;;;8.10;99.90;;;;;;4999430;28;20261;-76
2022/01/18 13:35:10;;;;;;;1.70;1.38;;;8.30;99.90;;;;;;5073927;28;20156;-76
2022/01/18 13:37:38;;;;;;;4.20;1.85;;;8.20;99.90;;;;;;5091740;28;20160;-75
2022/01/18 13:40:09;;;;;;;5.78;2.13;;;8.10;99.90;;;;;;5073746;28;20160;-76
2022/01/18 13:42:41;;;;;;;2.20;1.42;;;7.90;99.90;;;;;;5091512;28;20171;-76
2022/01/18 13:45:25;;;;;;;3.92;2.22;;;7.80;99.90;;;;;;5092192;28;20164;-76
2022/01/18 13:48:00;;;;;;;3.75;2.28;;;7.80;99.90;;;;;;5073819;28;20214;-77
2022/01/18 13:50:40;;;;;;;4.93;1.83;;;7.80;99.90;;;;;;5073770;28;20202;-77
2022/01/18 13:53:11;;;;;;;6.78;1.77;;;7.80;99.90;;;;;;5091419;28;20203;-77
2022/01/18 13:55:43;;;;;;;7.68;2.03;;;7.80;99.90;;;;;;5073577;28;20206;-76
2022/01/18 13:58:08;;;;;;;3.75;1.48;;;7.80;99.90;;;;;;5090980;28;20159;-77
2022/01/18 14:00:34;;;;;;;2.80;1.77;;;7.80;99.90;;;;;;5107413;28;20215;-77
2022/01/18 14:03:01;;;;;;;3.28;1.67;;;7.80;99.90;;;;;;5112111;28;20672;-76
2022/01/18 14:05:27;;;;;;;2.00;1.80;;;7.70;99.90;;;;;;5093998;28;20175;-76
2022/01/18 14:08:07;;;;;;;5.47;1.83;;;7.70;99.90;;;;;;5093929;28;20201;-75
2022/01/18 14:10:34;;;;;;;4.25;1.58;;;7.70;99.90;;;;;;5094110;28;20532;-76
2022/01/18 14:13:00;;;;;;;3.25;1.77;;;7.70;99.90;;;;;;5111816;28;20214;-77
2022/01/18 14:15:37;;;;;;;2.30;1.92;;;7.80;99.90;;;;;;5111600;28;20155;-76
2022/01/18 14:18:04;;;;;;;2.38;1.60;;;7.70;99.90;;;;;;5122111;28;20182;-76
2022/01/18 14:20:34;;;;;;;6.93;2.00;;;7.70;99.90;;;;;;5132264;28;20699;-75
2022/01/18 14:23:01;;;;;;;3.90;1.63;;;7.70;99.90;;;;;;5132175;28;20266;-76
2022/01/18 14:25:31;;;;;;;4.88;1.92;;;7.70;99.90;;;;;;5125851;28;20168;-76
2022/01/18 14:28:11;;;;;;;4.38;2.30;;;7.70;99.90;;;;;;5093690;28;20188;-76